CheckWX is a tool to help pilots better visualize weather data.  It is not intended as a substitute for an official pre-flight weather briefing.

05:06:16 UTC

6A1 METAR
Butler Municipal Airport
Butler, Georgia, USA
Current

11 mins ago

K6A1 180455Z AUTO 18008KT 10SM 26/20 A3005 RMK AO2 T02550197
Observed
Jun-18 @ 04:55 UTC
Wind
  • 180° at 8 KTS
Visibility
10 SM
Temperature
26°C / 79°F
Dewpoint
20°C / 68°F
Humidity
70%
Altimeter
30.05" Hg
Pressure
1017.62 hPa
Previous

31 mins ago

K6A1 180435Z AUTO 17006KT 10SM 26/20 A3006 RMK AO2 LTG DSNT SW T02600199
Observed
Jun-18 @ 04:35 UTC
Wind
  • 170° at 6 KTS
Visibility
10 SM
Temperature
26°C / 79°F
Dewpoint
20°C / 68°F
Humidity
70%
Altimeter
30.06" Hg
Pressure
1017.92 hPa
Previous

51 mins ago

K6A1 180415Z AUTO 17006KT 10SM 27/20 A3006 RMK AO2 T02650198
Observed
Jun-18 @ 04:15 UTC
Wind
  • 170° at 6 KTS
Visibility
10 SM
Temperature
27°C / 81°F
Dewpoint
20°C / 68°F
Heat Index
29°C / 84°F
Humidity
66%
Altimeter
30.06" Hg
Pressure
1017.92 hPa